Himawari 2 — JG5636 — position and weather

sailwx.info

Track history (hours):
 
Tides and Currents Weather Stations Pressure Air Temp Water Temp Dewpoint Dewpoint Depression Visibility Wind Speed Wind Dir Waves Ship Positions

Himawari 2

Last reported at 2014-Oct-29 15:34 UTC. Time now 2014-Oct-31 14:24 UTC.
Position N 35°06' E 139°44'.

Length 161 m; draft 6.5 m.

Type: Cargo ship. MMSI: 431100957.

Date/timePositionNaut miles runAvg speedWind from/ knotsBaromVisibWave heightAir tempDewpointWater temp
2014-Oct-29 15:34N 35°06' E 139°44'1413.9
2014-Oct-29 14:34N 35°20' E 139°43'1514.9
2014-Oct-29 13:33N 35°33' E 139°51'4 4.1
2014-Oct-29 12:29N 35°38' E 139°50'0 0.0
2014-Oct-29 00:09N 35°38' E 139°50'3 4.7
2014-Oct-28 23:33N 35°35' E 139°51'1414.2
2014-Oct-28 22:34N 35°22' E 139°45'1211.9
2014-Oct-28 21:33N 35°10' E 139°47'24920.4
2014-Oct-28 09:22N 33°54' E 134°58'2024.7
2014-Oct-28 08:33N 34°14' E 134°58'2322.7
2014-Oct-28 07:33N 34°37' E 135°00'22 1.6
2014-Oct-27 18:15N 34°30' E 134°36'1014.3
2014-Oct-27 17:32N 34°33' E 134°47'1313.4
2014-Oct-27 16:34N 34°37' E 135°02'1716.7
2014-Oct-27 15:33N 34°38' E 135°23'2 1.9
2014-Oct-27 14:30N 34°40' E 135°24'0 0.0
2014-Oct-27 13:18N 34°40' E 135°24'0 0.0
2014-Oct-27 12:30N 34°40' E 135°24'0 0.0
2014-Oct-27 11:30N 34°40' E 135°24'0 0.0
2014-Oct-27 10:30N 34°40' E 135°24'0 0.0
2014-Oct-27 09:12N 34°40' E 135°24'0 0.0
2014-Oct-27 08:30N 34°40' E 135°24'0 0.0
2014-Oct-27 07:30N 34°40' E 135°24'0 0.0
2014-Oct-27 06:24N 34°40' E 135°24'0 0.0
2014-Oct-27 04:25N 34°40' E 135°24'4 4.3
2014-Oct-27 03:33N 34°37' E 135°21'1817.6
2014-Oct-27 02:33N 34°24' E 135°06'1818.2
2014-Oct-27 01:33N 34°07' E 135°00'23913.9
2014-Oct-26 08:23N 35°05' E 139°41'1214.6
2014-Oct-26 07:33N 35°16' E 139°45'1212.1
2014-Oct-26 06:34N 35°28' E 139°49'10 2.4
2014-Oct-26 02:27N 35°38' E 139°50'2 2.1
2014-Oct-26 01:33N 35°36' E 139°50'1514.7
2014-Oct-26 00:33N 35°22' E 139°45'1313.0
2014-Oct-25 23:34N 35°09' E 139°47'  
2014-Oct-22 18:06N 35°04' E 139°44'1018.1
2014-Oct-22 17:33N 35°13' E 139°46'1313.3
2014-Oct-22 16:34N 35°27' E 139°46'1210.8
2014-Oct-22 15:29N 35°38' E 139°50'0 0.0
2014-Oct-22 14:29N 35°38' E 139°50'0 0.0
2014-Oct-22 12:11N 35°38' E 139°50'0 0.0
2014-Oct-22 10:15N 35°38' E 139°50'3 3.8
2014-Oct-22 09:33N 35°35' E 139°51'9 9.3
2014-Oct-22 08:34N 35°26' E 139°49'1110.5
2014-Oct-22 07:33N 35°16' E 139°46'24919.2
2014-Oct-21 18:33N 33°58' E 134°59'2424.2
2014-Oct-21 17:33N 34°22' E 134°60'1414.3
2014-Oct-21 16:33N 34°36' E 134°56'7 0.6
2014-Oct-21 05:33N 34°34' E 134°49'1414.4
2014-Oct-21 04:33N 34°36' E 135°06'1615.5
2014-Oct-21 03:33N 34°40' E 135°24'0 0.0
2014-Oct-21 02:33N 34°40' E 135°24'0 0.0
2014-Oct-21 01:33N 34°40' E 135°24'0 0.0
2014-Oct-21 00:27N 34°40' E 135°24'0 0.0
2014-Oct-20 23:33N 34°40' E 135°24'0 0.0
2014-Oct-20 22:33N 34°40' E 135°24'1 0.7
2014-Oct-20 21:33N 34°39' E 135°24'1211.6
2014-Oct-20 20:33N 34°31' E 135°14'1716.4
2014-Oct-20 19:33N 34°19' E 135°01'2020.5
2014-Oct-20 18:34N 33°58' E 134°59'23819.8
2014-Oct-20 06:31N 35°03' E 139°37'1516.0
2014-Oct-20 05:34N 35°16' E 139°46'1312.6
2014-Oct-20 04:34N 35°28' E 139°49'9 2.7
2014-Oct-20 01:05N 35°38' E 139°50'0 0.0
2014-Oct-19 23:11N 35°38' E 139°50'0 0.0
2014-Oct-19 22:21N 35°38' E 139°50'4 4.8
2014-Oct-19 21:33N 35°34' E 139°51'1211.9
2014-Oct-19 20:33N 35°23' E 139°46'1111.1
2014-Oct-19 19:33N 35°12' E 139°47'1816.9
2014-Oct-19 18:29N 34°54' E 139°46'1616.4
2014-Oct-19 17:30N 34°56' E 140°05'  
Track history (hours):
 
Tides and Currents Weather Stations Pressure Air Temp Water Temp Dewpoint Dewpoint Depression Visibility Wind Speed Wind Dir Waves Ship Positions

Himawari 2

Last reported at 2014-Oct-29 15:34 UTC. Time now 2014-Oct-31 14:24 UTC.
Position N 35°06' E 139°44'.

Length 161 m; draft 6.5 m.

Type: Cargo ship. MMSI: 431100957.

Date/timePositionNaut miles runAvg speedWind from/ knotsBaromVisibWave heightAir tempDewpointWater temp
2014-Oct-29 15:34N 35°06' E 139°44'1413.9
2014-Oct-29 14:34N 35°20' E 139°43'1514.9
2014-Oct-29 13:33N 35°33' E 139°51'4 4.1
2014-Oct-29 12:29N 35°38' E 139°50'0 0.0
2014-Oct-29 00:09N 35°38' E 139°50'3 4.7
2014-Oct-28 23:33N 35°35' E 139°51'1414.2
2014-Oct-28 22:34N 35°22' E 139°45'1211.9
2014-Oct-28 21:33N 35°10' E 139°47'24920.4
2014-Oct-28 09:22N 33°54' E 134°58'2024.7
2014-Oct-28 08:33N 34°14' E 134°58'2322.7
2014-Oct-28 07:33N 34°37' E 135°00'22 1.6
2014-Oct-27 18:15N 34°30' E 134°36'1014.3
2014-Oct-27 17:32N 34°33' E 134°47'1313.4
2014-Oct-27 16:34N 34°37' E 135°02'1716.7
2014-Oct-27 15:33N 34°38' E 135°23'2 1.9
2014-Oct-27 14:30N 34°40' E 135°24'0 0.0
2014-Oct-27 13:18N 34°40' E 135°24'0 0.0
2014-Oct-27 12:30N 34°40' E 135°24'0 0.0
2014-Oct-27 11:30N 34°40' E 135°24'0 0.0
2014-Oct-27 10:30N 34°40' E 135°24'0 0.0
2014-Oct-27 09:12N 34°40' E 135°24'0 0.0
2014-Oct-27 08:30N 34°40' E 135°24'0 0.0
2014-Oct-27 07:30N 34°40' E 135°24'0 0.0
2014-Oct-27 06:24N 34°40' E 135°24'0 0.0
2014-Oct-27 04:25N 34°40' E 135°24'4 4.3
2014-Oct-27 03:33N 34°37' E 135°21'1817.6
2014-Oct-27 02:33N 34°24' E 135°06'1818.2
2014-Oct-27 01:33N 34°07' E 135°00'23913.9
2014-Oct-26 08:23N 35°05' E 139°41'1214.6
2014-Oct-26 07:33N 35°16' E 139°45'1212.1
2014-Oct-26 06:34N 35°28' E 139°49'10 2.4
2014-Oct-26 02:27N 35°38' E 139°50'2 2.1
2014-Oct-26 01:33N 35°36' E 139°50'1514.7
2014-Oct-26 00:33N 35°22' E 139°45'1313.0
2014-Oct-25 23:34N 35°09' E 139°47'  
2014-Oct-22 18:06N 35°04' E 139°44'1018.1
2014-Oct-22 17:33N 35°13' E 139°46'1313.3
2014-Oct-22 16:34N 35°27' E 139°46'1210.8
2014-Oct-22 15:29N 35°38' E 139°50'0 0.0
2014-Oct-22 14:29N 35°38' E 139°50'0 0.0
2014-Oct-22 12:11N 35°38' E 139°50'0 0.0
2014-Oct-22 10:15N 35°38' E 139°50'3 3.8
2014-Oct-22 09:33N 35°35' E 139°51'9 9.3
2014-Oct-22 08:34N 35°26' E 139°49'1110.5
2014-Oct-22 07:33N 35°16' E 139°46'24919.2
2014-Oct-21 18:33N 33°58' E 134°59'2424.2
2014-Oct-21 17:33N 34°22' E 134°60'1414.3
2014-Oct-21 16:33N 34°36' E 134°56'7 0.6
2014-Oct-21 05:33N 34°34' E 134°49'1414.4
2014-Oct-21 04:33N 34°36' E 135°06'1615.5
2014-Oct-21 03:33N 34°40' E 135°24'0 0.0
2014-Oct-21 02:33N 34°40' E 135°24'0 0.0
2014-Oct-21 01:33N 34°40' E 135°24'0 0.0
2014-Oct-21 00:27N 34°40' E 135°24'0 0.0
2014-Oct-20 23:33N 34°40' E 135°24'0 0.0
2014-Oct-20 22:33N 34°40' E 135°24'1 0.7
2014-Oct-20 21:33N 34°39' E 135°24'1211.6
2014-Oct-20 20:33N 34°31' E 135°14'1716.4
2014-Oct-20 19:33N 34°19' E 135°01'2020.5
2014-Oct-20 18:34N 33°58' E 134°59'23819.8
2014-Oct-20 06:31N 35°03' E 139°37'1516.0
2014-Oct-20 05:34N 35°16' E 139°46'1312.6
2014-Oct-20 04:34N 35°28' E 139°49'9 2.7
2014-Oct-20 01:05N 35°38' E 139°50'0 0.0
2014-Oct-19 23:11N 35°38' E 139°50'0 0.0
2014-Oct-19 22:21N 35°38' E 139°50'4 4.8
2014-Oct-19 21:33N 35°34' E 139°51'1211.9
2014-Oct-19 20:33N 35°23' E 139°46'1111.1
2014-Oct-19 19:33N 35°12' E 139°47'1816.9
2014-Oct-19 18:29N 34°54' E 139°46'1616.4
2014-Oct-19 17:30N 34°56' E 140°05'  

Dump ship's entire track history